sensor_id;sensor_type;location;lat;lon;timestamp;pressure;altitude;pressure_sealevel;temperature;humidity
68329;BME280;55182;56.864;60.554;2023-12-20T00:02:08;75584.22;;;-143.60;83.27
68329;BME280;55182;56.864;60.554;2023-12-20T00:04:33;75584.22;;;-143.60;82.58
68329;BME280;55182;56.864;60.554;2023-12-20T00:06:59;75586.25;;;-143.60;82.35
68329;BME280;55182;56.864;60.554;2023-12-20T00:09:24;75576.19;;;-143.60;82.94
68329;BME280;55182;56.864;60.554;2023-12-20T00:11:50;75582.22;;;-143.60;82.73
68329;BME280;55182;56.864;60.554;2023-12-20T00:14:15;75584.22;;;-143.60;82.56
68329;BME280;55182;56.864;60.554;2023-12-20T00:16:41;75586.25;;;-143.60;82.30
68329;BME280;55182;56.864;60.554;2023-12-20T00:19:07;75584.22;;;-143.60;81.91
68329;BME280;55182;56.864;60.554;2023-12-20T00:21:32;75578.19;;;-143.60;82.42
68329;BME280;55182;56.864;60.554;2023-12-20T00:23:57;75586.25;;;-143.60;82.28
68329;BME280;55182;56.864;60.554;2023-12-20T00:26:23;75584.22;;;-143.60;81.54
68329;BME280;55182;56.864;60.554;2023-12-20T00:28:49;75572.19;;;-143.60;82.03
68329;BME280;55182;56.864;60.554;2023-12-20T00:31:14;75574.19;;;-143.60;82.30
68329;BME280;55182;56.864;60.554;2023-12-20T00:33:40;75576.19;;;-143.60;82.26
68329;BME280;55182;56.864;60.554;2023-12-20T00:36:05;75578.19;;;-143.60;82.15
68329;BME280;55182;56.864;60.554;2023-12-20T00:38:31;75564.13;;;-143.60;82.24
68329;BME280;55182;56.864;60.554;2023-12-20T00:40:56;75572.19;;;-143.60;82.32
68329;BME280;55182;56.864;60.554;2023-12-20T00:43:22;75564.13;;;-143.60;82.51
68329;BME280;55182;56.864;60.554;2023-12-20T00:45:47;75568.16;;;-143.60;82.45
68329;BME280;55182;56.864;60.554;2023-12-20T00:48:13;75572.19;;;-143.60;82.68
68329;BME280;55182;56.864;60.554;2023-12-20T00:50:38;75560.13;;;-143.60;82.45
68329;BME280;55182;56.864;60.554;2023-12-20T00:53:04;75564.13;;;-143.60;82.11
68329;BME280;55182;56.864;60.554;2023-12-20T00:55:30;75564.13;;;-143.60;82.16
68329;BME280;55182;56.864;60.554;2023-12-20T00:57:55;75564.13;;;-143.60;81.97
68329;BME280;55182;56.864;60.554;2023-12-20T01:00:21;75548.06;;;-143.60;81.98
68329;BME280;55182;56.864;60.554;2023-12-20T01:02:47;75556.09;;;-143.60;81.85
68329;BME280;55182;56.864;60.554;2023-12-20T01:05:12;75560.13;;;-143.60;81.81
68329;BME280;55182;56.864;60.554;2023-12-20T01:07:38;75552.09;;;-143.60;81.34
68329;BME280;55182;56.864;60.554;2023-12-20T01:10:03;75546.06;;;-143.60;81.77
68329;BME280;55182;56.864;60.554;2023-12-20T01:12:29;75546.06;;;-143.60;81.59
68329;BME280;55182;56.864;60.554;2023-12-20T01:14:54;75552.09;;;-143.60;81.52
68329;BME280;55182;56.864;60.554;2023-12-20T01:17:20;75550.06;;;-143.60;81.28
68329;BME280;55182;56.864;60.554;2023-12-20T01:19:45;75542.03;;;-143.60;81.68
68329;BME280;55182;56.864;60.554;2023-12-20T01:22:11;75536.00;;;-143.60;81.70
68329;BME280;55182;56.864;60.554;2023-12-20T01:24:36;75538.03;;;-143.60;81.57
68329;BME280;55182;56.864;60.554;2023-12-20T01:27:01;75525.97;;;-143.60;81.70
68329;BME280;55182;56.864;60.554;2023-12-20T01:29:27;75523.94;;;-143.60;81.62
68329;BME280;55182;56.864;60.554;2023-12-20T01:31:52;75525.97;;;-143.60;81.36
68329;BME280;55182;56.864;60.554;2023-12-20T01:34:18;75523.94;;;-143.60;81.33
68329;BME280;55182;56.864;60.554;2023-12-20T01:36:43;75521.94;;;-143.60;80.80
68329;BME280;55182;56.864;60.554;2023-12-20T01:39:09;75527.97;;;-143.60;80.82
68329;BME280;55182;56.864;60.554;2023-12-20T01:41:34;75529.97;;;-143.60;81.48
68329;BME280;55182;56.864;60.554;2023-12-20T01:43:59;75525.97;;;-143.60;81.30
68329;BME280;55182;56.864;60.554;2023-12-20T01:46:25;75519.94;;;-143.60;80.99
68329;BME280;55182;56.864;60.554;2023-12-20T01:48:51;75521.94;;;-143.60;81.31
68329;BME280;55182;56.864;60.554;2023-12-20T01:51:16;75515.91;;;-143.60;81.20
68329;BME280;55182;56.864;60.554;2023-12-20T01:53:42;75517.94;;;-143.60;81.39
68329;BME280;55182;56.864;60.554;2023-12-20T01:56:08;75513.91;;;-143.60;81.57
68329;BME280;55182;56.864;60.554;2023-12-20T01:58:33;75503.88;;;-143.60;81.23
68329;BME280;55182;56.864;60.554;2023-12-20T02:00:59;75511.91;;;-143.60;81.72
68329;BME280;55182;56.864;60.554;2023-12-20T02:03:25;75497.84;;;-143.60;82.05
68329;BME280;55182;56.864;60.554;2023-12-20T02:05:50;75501.84;;;-143.60;82.22
68329;BME280;55182;56.864;60.554;2023-12-20T02:08:16;75499.84;;;-143.60;82.58
68329;BME280;55182;56.864;60.554;2023-12-20T02:10:42;75491.81;;;-143.60;82.57
68329;BME280;55182;56.864;60.554;2023-12-20T02:13:07;75479.75;;;-143.60;82.32
68329;BME280;55182;56.864;60.554;2023-12-20T02:15:32;75485.78;;;-143.60;82.53
68329;BME280;55182;56.864;60.554;2023-12-20T02:17:58;75489.81;;;-143.60;82.36
68329;BME280;55182;56.864;60.554;2023-12-20T02:20:24;75487.78;;;-143.60;82.42
68329;BME280;55182;56.864;60.554;2023-12-20T02:22:49;75487.78;;;-143.60;82.40
68329;BME280;55182;56.864;60.554;2023-12-20T02:25:15;75475.72;;;-143.60;82.55
68329;BME280;55182;56.864;60.554;2023-12-20T02:27:40;75473.72;;;-143.60;82.37
68329;BME280;55182;56.864;60.554;2023-12-20T02:30:06;75463.69;;;-143.60;82.38
68329;BME280;55182;56.864;60.554;2023-12-20T02:32:32;75453.63;;;-143.60;82.22
68329;BME280;55182;56.864;60.554;2023-12-20T02:34:57;75467.69;;;-143.60;82.45
68329;BME280;55182;56.864;60.554;2023-12-20T02:37:23;75461.66;;;-143.60;82.33
68329;BME280;55182;56.864;60.554;2023-12-20T02:39:49;75461.66;;;-143.60;82.12
68329;BME280;55182;56.864;60.554;2023-12-20T02:42:14;75457.66;;;-143.60;81.94
68329;BME280;55182;56.864;60.554;2023-12-20T02:44:40;75451.63;;;-143.60;81.25
68329;BME280;55182;56.864;60.554;2023-12-20T02:47:05;75451.63;;;-143.60;81.34
68329;BME280;55182;56.864;60.554;2023-12-20T02:49:31;75447.59;;;-143.60;81.72
68329;BME280;55182;56.864;60.554;2023-12-20T02:51:56;75437.56;;;-143.60;81.73
68329;BME280;55182;56.864;60.554;2023-12-20T02:54:22;75447.59;;;-143.60;82.11
68329;BME280;55182;56.864;60.554;2023-12-20T02:56:47;75443.59;;;-143.60;81.67
68329;BME280;55182;56.864;60.554;2023-12-20T02:59:13;75435.56;;;-143.60;81.58
68329;BME280;55182;56.864;60.554;2023-12-20T03:01:42;75447.59;;;-143.60;81.54
68329;BME280;55182;56.864;60.554;2023-12-20T03:04:08;75433.53;;;-143.60;82.07
68329;BME280;55182;56.864;60.554;2023-12-20T03:06:34;75431.53;;;-143.60;81.62
68329;BME280;55182;56.864;60.554;2023-12-20T03:08:59;75431.53;;;-143.60;81.39
68329;BME280;55182;56.864;60.554;2023-12-20T03:11:28;75431.53;;;-143.60;81.61
68329;BME280;55182;56.864;60.554;2023-12-20T03:13:53;75425.50;;;-143.60;81.76
68329;BME280;55182;56.864;60.554;2023-12-20T03:16:19;75433.53;;;-143.60;81.52
68329;BME280;55182;56.864;60.554;2023-12-20T03:18:44;75437.56;;;-143.60;81.61
68329;BME280;55182;56.864;60.554;2023-12-20T03:21:10;75423.50;;;-143.60;81.57
68329;BME280;55182;56.864;60.554;2023-12-20T03:23:35;75423.50;;;-143.60;81.80
68329;BME280;55182;56.864;60.554;2023-12-20T03:26:01;75431.53;;;-143.60;81.81
68329;BME280;55182;56.864;60.554;2023-12-20T03:28:27;75439.56;;;-143.60;81.83
68329;BME280;55182;56.864;60.554;2023-12-20T03:30:52;75433.53;;;-143.60;81.97
68329;BME280;55182;56.864;60.554;2023-12-20T03:33:18;75431.53;;;-143.60;81.42
68329;BME280;55182;56.864;60.554;2023-12-20T03:35:43;75411.44;;;-143.60;81.65
68329;BME280;55182;56.864;60.554;2023-12-20T03:38:09;75407.44;;;-143.60;81.28
68329;BME280;55182;56.864;60.554;2023-12-20T03:40:34;75415.47;;;-143.60;80.99
68329;BME280;55182;56.864;60.554;2023-12-20T03:43:00;75415.47;;;-143.60;81.26
68329;BME280;55182;56.864;60.554;2023-12-20T03:45:25;75427.50;;;-143.60;81.23
68329;BME280;55182;56.864;60.554;2023-12-20T03:47:51;75427.50;;;-143.60;81.71
68329;BME280;55182;56.864;60.554;2023-12-20T03:50:16;75429.53;;;-143.60;81.74
68329;BME280;55182;56.864;60.554;2023-12-20T03:52:42;75435.56;;;-143.60;82.01
68329;BME280;55182;56.864;60.554;2023-12-20T03:55:07;75435.56;;;-143.60;82.16
68329;BME280;55182;56.864;60.554;2023-12-20T03:57:33;75435.56;;;-143.60;82.46
68329;BME280;55182;56.864;60.554;2023-12-20T03:59:58;75425.50;;;-143.60;82.44
68329;BME280;55182;56.864;60.554;2023-12-20T04:02:24;75417.47;;;-143.60;82.14
68329;BME280;55182;56.864;60.554;2023-12-20T04:04:49;75407.44;;;-143.60;82.29
68329;BME280;55182;56.864;60.554;2023-12-20T04:07:15;75411.44;;;-143.60;82.45
68329;BME280;55182;56.864;60.554;2023-12-20T04:09:40;75411.44;;;-143.60;82.13
68329;BME280;55182;56.864;60.554;2023-12-20T04:12:06;75405.41;;;-143.60;82.22
68329;BME280;55182;56.864;60.554;2023-12-20T04:14:32;75399.38;;;-143.60;82.20
68329;BME280;55182;56.864;60.554;2023-12-20T04:16:57;75395.38;;;-143.60;82.22
68329;BME280;55182;56.864;60.554;2023-12-20T04:19:23;75395.38;;;-143.60;81.86
68329;BME280;55182;56.864;60.554;2023-12-20T04:21:48;75391.34;;;-143.60;81.92
68329;BME280;55182;56.864;60.554;2023-12-20T04:24:14;75383.31;;;-143.60;81.75
68329;BME280;55182;56.864;60.554;2023-12-20T04:26:39;75381.31;;;-143.60;82.01
68329;BME280;55182;56.864;60.554;2023-12-20T04:29:05;75359.22;;;-143.60;81.98
68329;BME280;55182;56.864;60.554;2023-12-20T04:31:30;75367.25;;;-143.60;81.75
68329;BME280;55182;56.864;60.554;2023-12-20T04:33:56;75367.25;;;-143.60;81.71
68329;BME280;55182;56.864;60.554;2023-12-20T04:36:21;75369.25;;;-143.60;82.04
68329;BME280;55182;56.864;60.554;2023-12-20T04:38:47;75355.19;;;-143.60;82.15
68329;BME280;55182;56.864;60.554;2023-12-20T04:41:12;75351.16;;;-143.60;81.83
68329;BME280;55182;56.864;60.554;2023-12-20T04:43:38;75351.16;;;-143.60;81.76
68329;BME280;55182;56.864;60.554;2023-12-20T04:46:04;75339.13;;;-143.60;81.82
68329;BME280;55182;56.864;60.554;2023-12-20T04:48:29;75333.09;;;-143.60;81.78
68329;BME280;55182;56.864;60.554;2023-12-20T04:50:54;75331.06;;;-143.60;81.75
68329;BME280;55182;56.864;60.554;2023-12-20T04:53:20;75331.06;;;-143.60;81.56
68329;BME280;55182;56.864;60.554;2023-12-20T04:55:45;75327.06;;;-143.60;81.87
68329;BME280;55182;56.864;60.554;2023-12-20T04:58:11;75323.03;;;-143.60;82.13
68329;BME280;55182;56.864;60.554;2023-12-20T05:00:37;75323.03;;;-143.60;82.43
68329;BME280;55182;56.864;60.554;2023-12-20T05:03:02;75313.00;;;-143.60;82.73
68329;BME280;55182;56.864;60.554;2023-12-20T05:05:28;75319.03;;;-143.60;83.55
68329;BME280;55182;56.864;60.554;2023-12-20T05:07:53;75317.00;;;-143.60;84.00
68329;BME280;55182;56.864;60.554;2023-12-20T05:10:19;75319.03;;;-143.60;84.17
68329;BME280;55182;56.864;60.554;2023-12-20T05:12:44;75311.00;;;-143.60;84.37
68329;BME280;55182;56.864;60.554;2023-12-20T05:15:10;75319.03;;;-143.60;83.81
68329;BME280;55182;56.864;60.554;2023-12-20T05:17:35;75311.00;;;-143.60;83.90
68329;BME280;55182;56.864;60.554;2023-12-20T05:20:00;75302.94;;;-143.60;84.12
68329;BME280;55182;56.864;60.554;2023-12-20T05:22:26;75311.00;;;-143.60;84.08
68329;BME280;55182;56.864;60.554;2023-12-20T05:24:51;75319.03;;;-143.60;84.24
68329;BME280;55182;56.864;60.554;2023-12-20T05:27:17;75319.03;;;-143.60;85.04
68329;BME280;55182;56.864;60.554;2023-12-20T05:29:42;75315.00;;;-143.60;85.86
68329;BME280;55182;56.864;60.554;2023-12-20T05:32:08;75319.03;;;-143.60;86.27
68329;BME280;55182;56.864;60.554;2023-12-20T05:34:33;75319.03;;;-143.60;87.42
68329;BME280;55182;56.864;60.554;2023-12-20T05:36:58;75317.00;;;-143.60;87.80
68329;BME280;55182;56.864;60.554;2023-12-20T05:39:24;75319.03;;;-143.60;88.05
68329;BME280;55182;56.864;60.554;2023-12-20T05:41:49;75313.00;;;-143.60;88.56
68329;BME280;55182;56.864;60.554;2023-12-20T05:44:15;75308.97;;;-143.60;88.81
68329;BME280;55182;56.864;60.554;2023-12-20T05:46:40;75302.94;;;-143.60;88.99
68329;BME280;55182;56.864;60.554;2023-12-20T05:49:06;75298.94;;;-143.60;89.35
68329;BME280;55182;56.864;60.554;2023-12-20T05:51:31;75292.91;;;-143.60;89.61
68329;BME280;55182;56.864;60.554;2023-12-20T05:53:57;75286.88;;;-143.60;90.08
68329;BME280;55182;56.864;60.554;2023-12-20T05:56:22;75282.88;;;-143.60;90.12
68329;BME280;55182;56.864;60.554;2023-12-20T05:58:48;75278.84;;;-143.60;90.30
68329;BME280;55182;56.864;60.554;2023-12-20T06:01:16;75274.81;;;-143.60;90.62
68329;BME280;55182;56.864;60.554;2023-12-20T06:03:42;75268.81;;;-143.60;90.87
68329;BME280;55182;56.864;60.554;2023-12-20T06:06:08;75270.81;;;-143.60;91.02
68329;BME280;55182;56.864;60.554;2023-12-20T06:08:33;75260.75;;;-143.60;91.33
68329;BME280;55182;56.864;60.554;2023-12-20T06:10:59;75264.78;;;-143.60;91.45
68329;BME280;55182;56.864;60.554;2023-12-20T06:13:24;75266.78;;;-143.60;91.64
68329;BME280;55182;56.864;60.554;2023-12-20T06:15:50;75254.72;;;-143.60;91.80
68329;BME280;55182;56.864;60.554;2023-12-20T06:18:16;75254.72;;;-143.60;91.75
68329;BME280;55182;56.864;60.554;2023-12-20T06:20:41;75250.72;;;-143.60;91.89
68329;BME280;55182;56.864;60.554;2023-12-20T06:23:06;75242.69;;;-143.60;92.36
68329;BME280;55182;56.864;60.554;2023-12-20T06:25:32;75238.66;;;-143.60;92.29
68329;BME280;55182;56.864;60.554;2023-12-20T06:27:57;75230.63;;;-143.60;92.50
68329;BME280;55182;56.864;60.554;2023-12-20T06:30:23;75228.63;;;-143.60;92.54
68329;BME280;55182;56.864;60.554;2023-12-20T06:32:48;75222.59;;;-143.60;92.97
68329;BME280;55182;56.864;60.554;2023-12-20T06:35:14;75222.59;;;-143.60;93.37
68329;BME280;55182;56.864;60.554;2023-12-20T06:37:39;75218.56;;;-143.60;93.68
68329;BME280;55182;56.864;60.554;2023-12-20T06:40:05;75212.53;;;-143.60;93.95
68329;BME280;55182;56.864;60.554;2023-12-20T06:42:31;75210.53;;;-143.60;94.42
68329;BME280;55182;56.864;60.554;2023-12-20T06:44:56;75198.47;;;-143.60;94.88
68329;BME280;55182;56.864;60.554;2023-12-20T06:47:22;75190.44;;;-143.60;95.21
68329;BME280;55182;56.864;60.554;2023-12-20T06:49:47;75182.41;;;-143.60;95.04
68329;BME280;55182;56.864;60.554;2023-12-20T06:52:13;75184.41;;;-143.60;95.31
68329;BME280;55182;56.864;60.554;2023-12-20T06:54:38;75180.41;;;-143.60;95.69
68329;BME280;55182;56.864;60.554;2023-12-20T06:57:04;75178.41;;;-143.60;95.86
68329;BME280;55182;56.864;60.554;2023-12-20T06:59:29;75162.31;;;-143.60;96.19
68329;BME280;55182;56.864;60.554;2023-12-20T07:01:55;75166.34;;;-143.60;96.18
68329;BME280;55182;56.864;60.554;2023-12-20T07:04:20;75158.31;;;-143.60;96.30
68329;BME280;55182;56.864;60.554;2023-12-20T07:06:46;75148.25;;;-143.60;96.43
68329;BME280;55182;56.864;60.554;2023-12-20T07:09:12;75138.22;;;-143.60;96.25
68329;BME280;55182;56.864;60.554;2023-12-20T07:11:38;75130.19;;;-143.60;96.22
68329;BME280;55182;56.864;60.554;2023-12-20T07:14:03;75124.16;;;-143.60;95.90
68329;BME280;55182;56.864;60.554;2023-12-20T07:16:29;75114.09;;;-143.60;95.63
68329;BME280;55182;56.864;60.554;2023-12-20T07:18:54;75104.06;;;-143.60;95.32
68329;BME280;55182;56.864;60.554;2023-12-20T07:21:20;75098.03;;;-143.60;95.20
68329;BME280;55182;56.864;60.554;2023-12-20T07:23:45;75094.00;;;-143.60;94.57
68329;BME280;55182;56.864;60.554;2023-12-20T07:26:11;75077.94;;;-143.60;94.34
68329;BME280;55182;56.864;60.554;2023-12-20T07:28:36;75069.91;;;-143.60;93.90
68329;BME280;55182;56.864;60.554;2023-12-20T07:31:02;75053.84;;;-143.60;93.32
68329;BME280;55182;56.864;60.554;2023-12-20T07:33:27;75059.88;;;-143.60;93.26
68329;BME280;55182;56.864;60.554;2023-12-20T07:35:53;75045.81;;;-143.60;92.57
68329;BME280;55182;56.864;60.554;2023-12-20T07:38:19;75037.75;;;-143.60;92.43
68329;BME280;55182;56.864;60.554;2023-12-20T07:40:44;75025.72;;;-143.60;92.10
68329;BME280;55182;56.864;60.554;2023-12-20T07:43:10;75019.69;;;-143.60;92.19
68329;BME280;55182;56.864;60.554;2023-12-20T07:45:35;75017.69;;;-143.60;92.58
68329;BME280;55182;56.864;60.554;2023-12-20T07:48:01;75023.69;;;-143.60;93.24
68329;BME280;55182;56.864;60.554;2023-12-20T07:50:26;75015.66;;;-143.60;93.56
68329;BME280;55182;56.864;60.554;2023-12-20T07:52:52;75007.63;;;-143.60;93.89
68329;BME280;55182;56.864;60.554;2023-12-20T07:55:17;75013.66;;;-143.60;94.26
68329;BME280;55182;56.864;60.554;2023-12-20T07:57:42;75011.66;;;-143.60;94.40
68329;BME280;55182;56.864;60.554;2023-12-20T08:00:08;75005.63;;;-143.60;94.55
68329;BME280;55182;56.864;60.554;2023-12-20T08:02:34;75007.63;;;-143.60;94.85
68329;BME280;55182;56.864;60.554;2023-12-20T08:04:59;75001.59;;;-143.60;94.58
68329;BME280;55182;56.864;60.554;2023-12-20T08:07:24;74993.56;;;-143.60;94.89
68329;BME280;55182;56.864;60.554;2023-12-20T08:09:50;74991.56;;;-143.60;94.54
68329;BME280;55182;56.864;60.554;2023-12-20T08:12:15;74981.50;;;-143.60;94.35
68329;BME280;55182;56.864;60.554;2023-12-20T08:14:41;74973.47;;;-143.60;94.14
68329;BME280;55182;56.864;60.554;2023-12-20T08:17:06;74969.47;;;-143.60;94.09
68329;BME280;55182;56.864;60.554;2023-12-20T08:19:32;74961.44;;;-143.60;93.75
68329;BME280;55182;56.864;60.554;2023-12-20T08:21:57;74963.44;;;-143.60;93.55
68329;BME280;55182;56.864;60.554;2023-12-20T08:24:23;74957.41;;;-143.60;93.50
68329;BME280;55182;56.864;60.554;2023-12-20T08:26:48;74953.41;;;-143.60;93.61
68329;BME280;55182;56.864;60.554;2023-12-20T08:29:14;74957.41;;;-143.60;93.29
68329;BME280;55182;56.864;60.554;2023-12-20T08:31:39;74935.31;;;-143.60;93.29
68329;BME280;55182;56.864;60.554;2023-12-20T08:34:05;74935.31;;;-143.60;93.28
68329;BME280;55182;56.864;60.554;2023-12-20T08:36:30;74933.31;;;-143.60;93.36
68329;BME280;55182;56.864;60.554;2023-12-20T08:38:56;74931.28;;;-143.60;93.50
68329;BME280;55182;56.864;60.554;2023-12-20T08:41:21;74925.28;;;-143.60;93.15
68329;BME280;55182;56.864;60.554;2023-12-20T08:43:47;74919.25;;;-143.60;93.05
68329;BME280;55182;56.864;60.554;2023-12-20T08:46:13;74923.25;;;-143.60;93.14
68329;BME280;55182;56.864;60.554;2023-12-20T08:48:38;74919.25;;;-143.60;92.87
68329;BME280;55182;56.864;60.554;2023-12-20T08:51:04;74909.19;;;-143.60;92.81
68329;BME280;55182;56.864;60.554;2023-12-20T08:53:30;74905.19;;;-143.60;93.03
68329;BME280;55182;56.864;60.554;2023-12-20T08:55:56;74905.19;;;-143.60;92.98
68329;BME280;55182;56.864;60.554;2023-12-20T08:58:21;74897.16;;;-143.60;93.19
68329;BME280;55182;56.864;60.554;2023-12-20T09:00:47;74889.09;;;-143.60;92.98
68329;BME280;55182;56.864;60.554;2023-12-20T09:03:12;74889.09;;;-143.60;93.06
68329;BME280;55182;56.864;60.554;2023-12-20T09:05:38;74881.06;;;-143.60;92.77
68329;BME280;55182;56.864;60.554;2023-12-20T09:08:03;74871.03;;;-143.60;92.59
68329;BME280;55182;56.864;60.554;2023-12-20T09:10:29;74875.03;;;-143.60;92.42
68329;BME280;55182;56.864;60.554;2023-12-20T09:12:54;74860.97;;;-143.60;92.31
68329;BME280;55182;56.864;60.554;2023-12-20T09:15:20;74865.00;;;-143.60;92.21
68329;BME280;55182;56.864;60.554;2023-12-20T09:17:45;74860.97;;;-143.60;92.29
68329;BME280;55182;56.864;60.554;2023-12-20T09:20:11;74854.97;;;-143.60;92.18
68329;BME280;55182;56.864;60.554;2023-12-20T09:22:36;74858.97;;;-143.60;92.65
68329;BME280;55182;56.864;60.554;2023-12-20T09:25:02;74856.97;;;-143.60;92.72
68329;BME280;55182;56.864;60.554;2023-12-20T09:27:27;74852.94;;;-143.60;92.51
68329;BME280;55182;56.864;60.554;2023-12-20T09:29:53;74846.91;;;-143.60;92.68
68329;BME280;55182;56.864;60.554;2023-12-20T09:32:18;74836.88;;;-143.60;92.57
68329;BME280;55182;56.864;60.554;2023-12-20T09:34:44;74840.91;;;-143.60;92.56
68329;BME280;55182;56.864;60.554;2023-12-20T09:37:10;74836.88;;;-143.60;92.50
68329;BME280;55182;56.864;60.554;2023-12-20T09:39:35;74828.84;;;-143.60;92.53
68329;BME280;55182;56.864;60.554;2023-12-20T09:42:01;74828.84;;;-143.60;92.69
68329;BME280;55182;56.864;60.554;2023-12-20T09:44:28;74832.88;;;-143.60;92.66
68329;BME280;55182;56.864;60.554;2023-12-20T09:46:54;74826.84;;;-143.60;92.58
68329;BME280;55182;56.864;60.554;2023-12-20T09:49:20;74824.81;;;-143.60;92.18
68329;BME280;55182;56.864;60.554;2023-12-20T09:51:46;74816.78;;;-143.60;92.08
68329;BME280;55182;56.864;60.554;2023-12-20T09:54:13;74814.78;;;-143.60;91.84
68329;BME280;55182;56.864;60.554;2023-12-20T09:56:39;74812.78;;;-143.60;91.53
68329;BME280;55182;56.864;60.554;2023-12-20T09:59:04;74808.75;;;-143.60;91.22
68329;BME280;55182;56.864;60.554;2023-12-20T10:01:30;74796.69;;;-143.60;91.05
68329;BME280;55182;56.864;60.554;2023-12-20T10:03:55;74796.69;;;-143.60;90.07
68329;BME280;55182;56.864;60.554;2023-12-20T10:06:21;74796.69;;;-143.60;89.89
68329;BME280;55182;56.864;60.554;2023-12-20T10:08:47;74784.66;;;-143.60;89.51
68329;BME280;55182;56.864;60.554;2023-12-20T10:11:12;74784.66;;;-143.60;89.48
68329;BME280;55182;56.864;60.554;2023-12-20T10:13:41;74776.63;;;-143.60;88.91
68329;BME280;55182;56.864;60.554;2023-12-20T10:16:06;74774.59;;;-143.60;88.91
68329;BME280;55182;56.864;60.554;2023-12-20T10:18:32;74772.59;;;-143.60;88.03
68329;BME280;55182;56.864;60.554;2023-12-20T10:20:58;74766.56;;;-143.60;88.00
68329;BME280;55182;56.864;60.554;2023-12-20T10:23:23;74760.53;;;-143.60;87.88
68329;BME280;55182;56.864;60.554;2023-12-20T10:25:55;74768.56;;;-143.60;87.57
68329;BME280;55182;56.864;60.554;2023-12-20T10:28:21;74768.56;;;-143.60;87.66
68329;BME280;55182;56.864;60.554;2023-12-20T10:30:46;74756.53;;;-143.60;87.68
68329;BME280;55182;56.864;60.554;2023-12-20T10:33:12;74760.53;;;-143.60;87.49
68329;BME280;55182;56.864;60.554;2023-12-20T10:35:38;74754.50;;;-143.60;87.35
68329;BME280;55182;56.864;60.554;2023-12-20T10:38:04;74754.50;;;-143.60;87.27
68329;BME280;55182;56.864;60.554;2023-12-20T10:40:30;74752.50;;;-143.60;87.09
68329;BME280;55182;56.864;60.554;2023-12-20T10:42:56;74746.47;;;-143.60;86.98
68329;BME280;55182;56.864;60.554;2023-12-20T10:45:22;74752.50;;;-143.60;87.25
68329;BME280;55182;56.864;60.554;2023-12-20T10:47:47;74752.50;;;-143.60;87.05
68329;BME280;55182;56.864;60.554;2023-12-20T10:50:14;74748.50;;;-143.60;86.95
68329;BME280;55182;56.864;60.554;2023-12-20T10:52:40;74744.47;;;-143.60;86.85
68329;BME280;55182;56.864;60.554;2023-12-20T10:55:06;74744.47;;;-143.60;86.86
68329;BME280;55182;56.864;60.554;2023-12-20T10:57:32;74744.47;;;-143.60;86.82
68329;BME280;55182;56.864;60.554;2023-12-20T10:59:59;74740.47;;;-143.60;86.64
68329;BME280;55182;56.864;60.554;2023-12-20T11:02:26;74742.47;;;-143.60;86.62
68329;BME280;55182;56.864;60.554;2023-12-20T11:04:54;74736.44;;;-143.60;86.80
68329;BME280;55182;56.864;60.554;2023-12-20T11:07:43;74736.44;;;-143.60;86.63
68329;BME280;55182;56.864;60.554;2023-12-20T11:10:12;74736.44;;;-143.60;86.59
68329;BME280;55182;56.864;60.554;2023-12-20T11:15:05;74732.41;;;-143.60;86.41
68329;BME280;55182;56.864;60.554;2023-12-20T11:17:31;74728.41;;;-143.60;86.51
68329;BME280;55182;56.864;60.554;2023-12-20T11:22:26;74726.41;;;-143.60;86.11
68329;BME280;55182;56.864;60.554;2023-12-20T11:24:52;74728.41;;;-143.60;86.14
68329;BME280;55182;56.864;60.554;2023-12-20T11:27:18;74732.41;;;-143.60;86.45
68329;BME280;55182;56.864;60.554;2023-12-20T11:29:50;74728.41;;;-143.60;86.74
68329;BME280;55182;56.864;60.554;2023-12-20T11:34:54;74732.41;;;-143.60;87.19
68329;BME280;55182;56.864;60.554;2023-12-20T11:37:19;74726.41;;;-143.60;87.17
68329;BME280;55182;56.864;60.554;2023-12-20T11:39:45;74728.41;;;-143.60;87.19
68329;BME280;55182;56.864;60.554;2023-12-20T11:42:19;74724.38;;;-143.60;87.04
68329;BME280;55182;56.864;60.554;2023-12-20T11:44:45;74728.41;;;-143.60;86.80
68329;BME280;55182;56.864;60.554;2023-12-20T11:47:10;74716.34;;;-143.60;86.98
68329;BME280;55182;56.864;60.554;2023-12-20T11:49:36;74720.38;;;-143.60;86.89
68329;BME280;55182;56.864;60.554;2023-12-20T11:52:01;74720.38;;;-143.60;87.13
68329;BME280;55182;56.864;60.554;2023-12-20T11:54:27;74722.38;;;-143.60;87.17
68329;BME280;55182;56.864;60.554;2023-12-20T11:56:52;74720.38;;;-143.60;86.79
68329;BME280;55182;56.864;60.554;2023-12-20T11:59:18;74722.38;;;-143.60;87.02
68329;BME280;55182;56.864;60.554;2023-12-20T12:01:50;74718.34;;;-143.60;87.16
68329;BME280;55182;56.864;60.554;2023-12-20T12:04:16;74710.31;;;-143.60;86.98
68329;BME280;55182;56.864;60.554;2023-12-20T12:06:41;74704.28;;;-143.60;87.07
68329;BME280;55182;56.864;60.554;2023-12-20T12:09:07;74702.28;;;-143.60;86.93
68329;BME280;55182;56.864;60.554;2023-12-20T12:11:32;74698.28;;;-143.60;87.07
68329;BME280;55182;56.864;60.554;2023-12-20T12:13:58;74700.28;;;-143.60;86.83
68329;BME280;55182;56.864;60.554;2023-12-20T12:16:23;74700.28;;;-143.60;87.07
68329;BME280;55182;56.864;60.554;2023-12-20T12:18:58;74702.28;;;-143.60;87.12
68329;BME280;55182;56.864;60.554;2023-12-20T12:21:24;74706.31;;;-143.60;87.11
68329;BME280;55182;56.864;60.554;2023-12-20T12:23:49;74708.31;;;-143.60;87.29
68329;BME280;55182;56.864;60.554;2023-12-20T12:26:15;74704.28;;;-143.60;87.40
68329;BME280;55182;56.864;60.554;2023-12-20T12:28:40;74712.34;;;-143.60;87.30
68329;BME280;55182;56.864;60.554;2023-12-20T12:31:06;74708.31;;;-143.60;87.38